Fidato — PB5970 — position and weather

sailwx.info

Track history (hours):
 
Tides and Currents Weather Stations Pressure Air Temp Water Temp Dewpoint Dewpoint Depression Visibility Wind Speed Wind Dir Waves Ship Positions

Fidato

Last reported at 2017-Feb-22 07:30 UTC. Time now 2017-Feb-23 18:48 UTC.
Position N 49°12' E 008°23'.

Length 135 m; draft 2.5 m.

Type: Ship. MMSI: 244670975.

Date/timePositionNaut miles runAvg speedWind from/ knotsBaromVisibWave heightAir tempDewpointWater temp
2017-Feb-22 07:30N 49°12' E 008°23'100 2.2
2017-Feb-20 10:05N 50°41' E 007°11'3 4.7
2017-Feb-20 09:33N 50°43' E 007°08'5 5.2
2017-Feb-20 08:33N 50°47' E 007°02'4 4.3
2017-Feb-20 07:33N 50°51' E 006°59'3 2.9
2017-Feb-20 06:32N 50°54' E 007°01'4 4.0
2017-Feb-20 05:30N 50°58' E 006°60'13 0.7
2017-Feb-19 11:28N 51°09' E 006°48'3 3.5
2017-Feb-19 10:33N 51°11' E 006°45'2 2.4
2017-Feb-19 09:33N 51°13' E 006°46'21 1.3
2017-Feb-18 17:33N 51°34' E 006°41'4 3.7
2017-Feb-18 16:33N 51°35' E 006°36'4 4.2
2017-Feb-18 15:33N 51°40' E 006°34'5 4.7
2017-Feb-18 14:33N 51°42' E 006°28'4 4.1
2017-Feb-18 13:33N 51°45' E 006°23'5 5.4
2017-Feb-18 12:33N 51°49' E 006°17'6 5.7
2017-Feb-18 11:33N 51°51' E 006°08'6 5.6
2017-Feb-18 10:33N 51°52' E 005°59'5 4.9
2017-Feb-18 09:33N 51°51' E 005°51'6 6.5
2017-Feb-18 08:33N 51°54' E 005°42'7 6.4
2017-Feb-18 07:31N 51°53' E 005°31'4 4.4
2017-Feb-18 06:33N 51°56' E 005°25'5 4.8
2017-Feb-18 05:33N 51°58' E 005°19'7 7.1
2017-Feb-18 04:33N 52°01' E 005°08'1 1.0
2017-Feb-18 03:33N 52°02' E 005°07'0 0.0
2017-Feb-18 02:33N 52°02' E 005°07'0 0.0
2017-Feb-18 01:33N 52°02' E 005°07'0 0.0
2017-Feb-18 00:33N 52°02' E 005°07'0 0.0
2017-Feb-17 23:33N 52°02' E 005°07'0 0.0
2017-Feb-17 22:33N 52°02' E 005°07'1 1.2
2017-Feb-17 21:33N 52°03' E 005°06'7 7.0
2017-Feb-17 20:33N 52°09' E 005°00'7 7.1
2017-Feb-17 19:33N 52°16' E 005°01'7 6.6
2017-Feb-17 18:34N 52°22' E 004°57'6 5.7
2017-Feb-17 17:33N 52°25' E 004°49'0 0.4
2017-Feb-17 16:33N 52°25' E 004°49'0 0.0
2017-Feb-17 15:33N 52°25' E 004°49'0 0.4
2017-Feb-17 14:33N 52°25' E 004°49'0 0.0
2017-Feb-17 13:33N 52°25' E 004°49'0 0.0
2017-Feb-17 12:33N 52°25' E 004°49'0 0.0
2017-Feb-17 11:33N 52°25' E 004°49'0 0.0
2017-Feb-17 10:33N 52°25' E 004°49'0 0.0
2017-Feb-17 09:33N 52°25' E 004°49'0 0.0
2017-Feb-17 08:33N 52°25' E 004°49'0 0.0
2017-Feb-17 07:33N 52°25' E 004°49'0 0.0
2017-Feb-17 06:33N 52°25' E 004°49'1 1.3
2017-Feb-17 05:34N 52°25' E 004°51'1 0.9
2017-Feb-17 04:34N 52°24' E 004°52'0 0.0
2017-Feb-17 03:34N 52°24' E 004°52'0 0.0
2017-Feb-17 02:33N 52°24' E 004°52'0 0.0
2017-Feb-17 01:34N 52°24' E 004°52'0 0.0
2017-Feb-17 00:34N 52°24' E 004°52'0 0.0
2017-Feb-16 23:33N 52°24' E 004°52'0 0.0
2017-Feb-16 22:34N 52°24' E 004°52'0 0.0
2017-Feb-16 21:34N 52°24' E 004°52'0 0.0
2017-Feb-16 20:34N 52°24' E 004°52'0 0.2
2017-Feb-16 19:34N 52°24' E 004°52'0 0.2
2017-Feb-16 18:34N 52°25' E 004°52'0 0.0
2017-Feb-16 17:33N 52°25' E 004°52'0 0.0
2017-Feb-16 16:33N 52°25' E 004°52'0 0.0
2017-Feb-16 15:33N 52°25' E 004°52'0 0.3
2017-Feb-16 14:33N 52°24' E 004°52'0 0.0
2017-Feb-16 13:33N 52°24' E 004°52'0 0.0
2017-Feb-16 12:33N 52°24' E 004°52'0 0.0
2017-Feb-16 11:34N 52°24' E 004°52'0 0.0
2017-Feb-16 10:33N 52°24' E 004°52'0 0.0
2017-Feb-16 09:33N 52°24' E 004°52'3 3.3
2017-Feb-16 08:33N 52°23' E 004°57'0 0.0
2017-Feb-16 07:33N 52°23' E 004°57'0 0.0
2017-Feb-16 06:33N 52°23' E 004°57'0 0.0
2017-Feb-16 05:33N 52°23' E 004°57'0 0.0
2017-Feb-16 04:33N 52°23' E 004°57'0 0.0
2017-Feb-16 03:33N 52°23' E 004°57'0 0.0
2017-Feb-16 02:33N 52°23' E 004°57'0 0.0
2017-Feb-16 01:33N 52°23' E 004°57'0 0.0
2017-Feb-16 00:33N 52°23' E 004°57'0 0.0
2017-Feb-15 23:33N 52°23' E 004°57'1 0.7
2017-Feb-15 22:33N 52°22' E 004°57'7 6.8
2017-Feb-15 21:33N 52°16' E 005°01'7 7.0
2017-Feb-15 20:33N 52°09' E 005°01'7 6.9
2017-Feb-15 19:34N 52°03' E 005°07'7 7.1
2017-Feb-15 18:33N 51°59' E 005°16'9 4.4
2017-Feb-15 16:32N 51°53' E 005°28'9 9.0
2017-Feb-15 15:34N 51°54' E 005°42'8 8.2
2017-Feb-15 14:34N 51°53' E 005°55'7 7.3
2017-Feb-15 13:34N 51°51' E 006°07'9 8.9
2017-Feb-15 12:34N 51°47' E 006°19'8 7.6
2017-Feb-15 11:30N 51°41' E 006°28'7 7.1
2017-Feb-15 10:34N 51°36' E 006°36'20 6.5
2017-Feb-15 07:30N 51°17' E 006°42'6 6.2
2017-Feb-15 06:33N 51°11' E 006°44'16 1.4
2017-Feb-14 19:21N 50°58' E 006°60'6 6.8
2017-Feb-14 18:28N 50°52' E 007°02'6 6.7
2017-Feb-14 17:33N 50°46' E 007°04'  
Track history (hours):
 
Tides and Currents Weather Stations Pressure Air Temp Water Temp Dewpoint Dewpoint Depression Visibility Wind Speed Wind Dir Waves Ship Positions

Fidato

Last reported at 2017-Feb-22 07:30 UTC. Time now 2017-Feb-23 18:48 UTC.
Position N 49°12' E 008°23'.

Length 135 m; draft 2.5 m.

Type: Ship. MMSI: 244670975.

Date/timePositionNaut miles runAvg speedWind from/ knotsBaromVisibWave heightAir tempDewpointWater temp
2017-Feb-22 07:30N 49°12' E 008°23'100 2.2
2017-Feb-20 10:05N 50°41' E 007°11'3 4.7
2017-Feb-20 09:33N 50°43' E 007°08'5 5.2
2017-Feb-20 08:33N 50°47' E 007°02'4 4.3
2017-Feb-20 07:33N 50°51' E 006°59'3 2.9
2017-Feb-20 06:32N 50°54' E 007°01'4 4.0
2017-Feb-20 05:30N 50°58' E 006°60'13 0.7
2017-Feb-19 11:28N 51°09' E 006°48'3 3.5
2017-Feb-19 10:33N 51°11' E 006°45'2 2.4
2017-Feb-19 09:33N 51°13' E 006°46'21 1.3
2017-Feb-18 17:33N 51°34' E 006°41'4 3.7
2017-Feb-18 16:33N 51°35' E 006°36'4 4.2
2017-Feb-18 15:33N 51°40' E 006°34'5 4.7
2017-Feb-18 14:33N 51°42' E 006°28'4 4.1
2017-Feb-18 13:33N 51°45' E 006°23'5 5.4
2017-Feb-18 12:33N 51°49' E 006°17'6 5.7
2017-Feb-18 11:33N 51°51' E 006°08'6 5.6
2017-Feb-18 10:33N 51°52' E 005°59'5 4.9
2017-Feb-18 09:33N 51°51' E 005°51'6 6.5
2017-Feb-18 08:33N 51°54' E 005°42'7 6.4
2017-Feb-18 07:31N 51°53' E 005°31'4 4.4
2017-Feb-18 06:33N 51°56' E 005°25'5 4.8
2017-Feb-18 05:33N 51°58' E 005°19'7 7.1
2017-Feb-18 04:33N 52°01' E 005°08'1 1.0
2017-Feb-18 03:33N 52°02' E 005°07'0 0.0
2017-Feb-18 02:33N 52°02' E 005°07'0 0.0
2017-Feb-18 01:33N 52°02' E 005°07'0 0.0
2017-Feb-18 00:33N 52°02' E 005°07'0 0.0
2017-Feb-17 23:33N 52°02' E 005°07'0 0.0
2017-Feb-17 22:33N 52°02' E 005°07'1 1.2
2017-Feb-17 21:33N 52°03' E 005°06'7 7.0
2017-Feb-17 20:33N 52°09' E 005°00'7 7.1
2017-Feb-17 19:33N 52°16' E 005°01'7 6.6
2017-Feb-17 18:34N 52°22' E 004°57'6 5.7
2017-Feb-17 17:33N 52°25' E 004°49'0 0.4
2017-Feb-17 16:33N 52°25' E 004°49'0 0.0
2017-Feb-17 15:33N 52°25' E 004°49'0 0.4
2017-Feb-17 14:33N 52°25' E 004°49'0 0.0
2017-Feb-17 13:33N 52°25' E 004°49'0 0.0
2017-Feb-17 12:33N 52°25' E 004°49'0 0.0
2017-Feb-17 11:33N 52°25' E 004°49'0 0.0
2017-Feb-17 10:33N 52°25' E 004°49'0 0.0
2017-Feb-17 09:33N 52°25' E 004°49'0 0.0
2017-Feb-17 08:33N 52°25' E 004°49'0 0.0
2017-Feb-17 07:33N 52°25' E 004°49'0 0.0
2017-Feb-17 06:33N 52°25' E 004°49'1 1.3
2017-Feb-17 05:34N 52°25' E 004°51'1 0.9
2017-Feb-17 04:34N 52°24' E 004°52'0 0.0
2017-Feb-17 03:34N 52°24' E 004°52'0 0.0
2017-Feb-17 02:33N 52°24' E 004°52'0 0.0
2017-Feb-17 01:34N 52°24' E 004°52'0 0.0
2017-Feb-17 00:34N 52°24' E 004°52'0 0.0
2017-Feb-16 23:33N 52°24' E 004°52'0 0.0
2017-Feb-16 22:34N 52°24' E 004°52'0 0.0
2017-Feb-16 21:34N 52°24' E 004°52'0 0.0
2017-Feb-16 20:34N 52°24' E 004°52'0 0.2
2017-Feb-16 19:34N 52°24' E 004°52'0 0.2
2017-Feb-16 18:34N 52°25' E 004°52'0 0.0
2017-Feb-16 17:33N 52°25' E 004°52'0 0.0
2017-Feb-16 16:33N 52°25' E 004°52'0 0.0
2017-Feb-16 15:33N 52°25' E 004°52'0 0.3
2017-Feb-16 14:33N 52°24' E 004°52'0 0.0
2017-Feb-16 13:33N 52°24' E 004°52'0 0.0
2017-Feb-16 12:33N 52°24' E 004°52'0 0.0
2017-Feb-16 11:34N 52°24' E 004°52'0 0.0
2017-Feb-16 10:33N 52°24' E 004°52'0 0.0
2017-Feb-16 09:33N 52°24' E 004°52'3 3.3
2017-Feb-16 08:33N 52°23' E 004°57'0 0.0
2017-Feb-16 07:33N 52°23' E 004°57'0 0.0
2017-Feb-16 06:33N 52°23' E 004°57'0 0.0
2017-Feb-16 05:33N 52°23' E 004°57'0 0.0
2017-Feb-16 04:33N 52°23' E 004°57'0 0.0
2017-Feb-16 03:33N 52°23' E 004°57'0 0.0
2017-Feb-16 02:33N 52°23' E 004°57'0 0.0
2017-Feb-16 01:33N 52°23' E 004°57'0 0.0
2017-Feb-16 00:33N 52°23' E 004°57'0 0.0
2017-Feb-15 23:33N 52°23' E 004°57'1 0.7
2017-Feb-15 22:33N 52°22' E 004°57'7 6.8
2017-Feb-15 21:33N 52°16' E 005°01'7 7.0
2017-Feb-15 20:33N 52°09' E 005°01'7 6.9
2017-Feb-15 19:34N 52°03' E 005°07'7 7.1
2017-Feb-15 18:33N 51°59' E 005°16'9 4.4
2017-Feb-15 16:32N 51°53' E 005°28'9 9.0
2017-Feb-15 15:34N 51°54' E 005°42'8 8.2
2017-Feb-15 14:34N 51°53' E 005°55'7 7.3
2017-Feb-15 13:34N 51°51' E 006°07'9 8.9
2017-Feb-15 12:34N 51°47' E 006°19'8 7.6
2017-Feb-15 11:30N 51°41' E 006°28'7 7.1
2017-Feb-15 10:34N 51°36' E 006°36'20 6.5
2017-Feb-15 07:30N 51°17' E 006°42'6 6.2
2017-Feb-15 06:33N 51°11' E 006°44'16 1.4
2017-Feb-14 19:21N 50°58' E 006°60'6 6.8
2017-Feb-14 18:28N 50°52' E 007°02'6 6.7
2017-Feb-14 17:33N 50°46' E 007°04'  

Dump ship's entire track history